createdAt,value
2023-01-13T00:03:51.439Z,7.43
2023-01-13T00:08:54.090Z,7.44
2023-01-13T00:13:56.910Z,7.45
2023-01-13T00:18:58.917Z,7.42
2023-01-13T00:24:00.607Z,7.41
2023-01-13T00:29:02.534Z,7.43
2023-01-13T00:34:05.118Z,7.41
2023-01-13T00:39:16.799Z,7.44
2023-01-13T00:44:18.644Z,7.44
2023-01-13T00:49:20.386Z,7.46
2023-01-13T00:54:22.158Z,7.46
2023-01-13T00:59:23.905Z,7.47
2023-01-13T01:04:25.711Z,7.45
2023-01-13T01:09:33.490Z,7.49
2023-01-13T01:14:35.274Z,7.51
2023-01-13T01:19:38.848Z,7.49
2023-01-13T01:24:40.635Z,7.43
2023-01-13T01:29:42.309Z,7.45
2023-01-13T01:34:44.009Z,7.39
2023-01-13T01:39:45.625Z,7.44
2023-01-13T01:44:58.622Z,7.37
2023-01-13T01:50:03.107Z,7.40
2023-01-13T01:55:08.204Z,7.39
2023-01-13T02:00:10.643Z,7.40
2023-01-13T02:05:16.005Z,7.40
2023-01-13T02:10:21.725Z,7.36
2023-01-13T02:15:32.794Z,7.40
2023-01-13T02:21:09.498Z,7.38
2023-01-13T02:26:31.289Z,7.32
2023-01-13T02:31:44.827Z,7.37
2023-01-13T02:36:58.163Z,7.26
2023-01-13T02:42:26.186Z,7.31
2023-01-13T02:47:32.489Z,7.33
2023-01-13T02:52:45.316Z,7.31
2023-01-13T02:57:48.420Z,7.33
2023-01-13T03:02:50.164Z,7.28
2023-01-13T03:07:57.604Z,7.29
2023-01-13T03:13:16.205Z,7.26
2023-01-13T03:18:46.950Z,7.27
2023-01-13T03:23:54.762Z,7.33
2023-01-13T03:29:20.223Z,7.33
2023-01-13T03:34:24.449Z,7.39
2023-01-13T03:39:32.072Z,7.30
2023-01-13T03:44:40.869Z,7.31
2023-01-13T03:50:03.683Z,7.31
2023-01-13T03:55:15.453Z,7.32
2023-01-13T04:00:19.629Z,7.32
2023-01-13T04:05:22.078Z,7.34
2023-01-13T04:10:34.807Z,7.31
2023-01-13T04:15:42.975Z,7.35
2023-01-13T04:20:47.353Z,7.40
2023-01-13T04:25:50.078Z,7.42
2023-01-13T04:30:52.617Z,7.41
2023-01-13T04:35:55.266Z,7.43
2023-01-13T04:40:57.047Z,7.39
2023-01-13T04:45:58.743Z,7.39
2023-01-13T04:51:00.443Z,7.33
2023-01-13T04:56:02.157Z,7.27
2023-01-13T05:01:03.914Z,7.19
2023-01-13T05:06:05.812Z,7.14
2023-01-13T05:11:27.597Z,7.11
2023-01-13T05:16:48.145Z,7.07
2023-01-13T05:22:08.600Z,7.08
2023-01-13T05:27:10.141Z,7.13
2023-01-13T05:32:11.814Z,7.04
2023-01-13T05:37:13.593Z,7.04
2023-01-13T05:42:33.930Z,7.05
2023-01-13T05:47:35.588Z,7.17
2023-01-13T05:52:37.793Z,7.15
2023-01-13T05:57:39.411Z,7.18
2023-01-13T06:02:41.077Z,7.23
2023-01-13T06:07:42.765Z,7.25
2023-01-13T06:12:44.531Z,7.31
2023-01-13T06:17:46.859Z,7.32
2023-01-13T06:22:51.768Z,7.34
2023-01-13T06:27:55.591Z,7.31
2023-01-13T06:33:01.157Z,7.27
2023-01-13T06:38:06.070Z,7.36
2023-01-13T06:43:17.282Z,7.31
2023-01-13T06:48:22.759Z,7.26
2023-01-13T06:53:24.494Z,7.24
2023-01-13T06:58:26.233Z,7.12
2023-01-13T07:03:28.014Z,7.00
2023-01-13T07:08:29.760Z,7.08
2023-01-13T07:13:50.140Z,7.12
2023-01-13T07:18:51.683Z,7.19
2023-01-13T07:23:53.337Z,7.21
2023-01-13T07:28:54.976Z,7.20
2023-01-13T07:33:56.655Z,7.17
2023-01-13T07:38:58.278Z,7.06
2023-01-13T07:44:05.065Z,7.15
2023-01-13T07:49:07.340Z,7.20
2023-01-13T07:54:09.202Z,7.18
2023-01-13T07:59:11.229Z,7.31
2023-01-13T08:04:13.060Z,7.26
2023-01-13T08:09:14.927Z,7.40
2023-01-13T08:14:16.562Z,7.24
2023-01-13T08:19:18.402Z,7.35
2023-01-13T08:24:20.040Z,7.30
2023-01-13T08:29:21.817Z,7.24
2023-01-13T08:34:23.850Z,7.37
2023-01-13T08:39:25.589Z,7.39
2023-01-13T08:44:29.294Z,7.34
2023-01-13T08:49:31.000Z,7.35
2023-01-13T08:54:32.733Z,7.30
2023-01-13T08:59:34.967Z,7.38
2023-01-13T09:04:36.694Z,7.43
2023-01-13T09:09:39.250Z,7.44
2023-01-13T09:14:41.077Z,7.41
2023-01-13T09:19:42.853Z,7.48
2023-01-13T09:24:45.337Z,7.44
2023-01-13T09:29:47.081Z,7.44
2023-01-13T09:35:00.828Z,7.47
2023-01-13T09:40:07.815Z,7.44
2023-01-13T09:45:16.814Z,7.54
2023-01-13T09:50:28.013Z,7.48
2023-01-13T09:55:34.644Z,7.47
2023-01-13T10:01:14.540Z,7.47
2023-01-13T10:06:22.420Z,7.47
2023-01-13T10:11:48.573Z,7.48
2023-01-13T10:17:18.081Z,7.65
2023-01-13T10:22:39.187Z,7.78
2023-01-13T10:27:41.112Z,7.75
2023-01-13T10:32:46.316Z,7.80
2023-01-13T10:37:57.670Z,7.71
2023-01-13T10:43:08.358Z,7.74
2023-01-13T10:48:15.105Z,7.75
2023-01-13T10:53:20.061Z,7.79
2023-01-13T10:58:21.727Z,7.89
2023-01-13T11:03:24.966Z,7.82
2023-01-13T11:08:30.194Z,7.82
2023-01-13T11:14:00.535Z,7.86
2023-01-13T11:19:12.582Z,7.81
2023-01-13T11:24:37.322Z,7.81
2023-01-13T11:29:59.477Z,7.79
2023-01-13T11:35:10.048Z,7.85
2023-01-13T11:40:18.607Z,7.80
2023-01-13T11:45:42.310Z,7.77
2023-01-13T11:50:51.065Z,7.82
2023-01-13T11:55:58.734Z,7.83
2023-01-13T12:01:23.259Z,7.89
2023-01-13T12:06:34.987Z,7.94
2023-01-13T12:12:15.266Z,7.90
2023-01-13T12:17:32.905Z,7.93
2023-01-13T12:22:37.236Z,7.88
2023-01-13T12:27:46.435Z,7.82
2023-01-13T12:32:50.000Z,7.85
2023-01-13T12:38:16.316Z,7.84
2023-01-13T12:43:39.679Z,7.91
2023-01-13T12:48:59.611Z,7.88
2023-01-13T12:54:03.514Z,7.85
2023-01-13T12:59:17.477Z,7.88
2023-01-13T13:04:20.533Z,7.84
2023-01-13T13:09:29.023Z,7.89
2023-01-13T13:14:39.914Z,7.94
2023-01-13T13:19:42.189Z,7.92
2023-01-13T13:25:03.728Z,7.92
2023-01-13T13:30:29.991Z,7.94
2023-01-13T13:35:57.507Z,7.94
2023-01-13T13:41:17.813Z,7.97
2023-01-13T13:46:46.990Z,7.99
2023-01-13T13:52:10.230Z,7.96
2023-01-13T13:57:18.982Z,7.91
2023-01-13T14:02:28.548Z,7.87
2023-01-13T14:07:30.175Z,7.84
2023-01-13T14:12:38.608Z,7.86
2023-01-13T14:17:40.265Z,7.87
2023-01-13T14:22:47.376Z,7.89
2023-01-13T14:27:49.252Z,7.88
2023-01-13T14:32:51.500Z,7.80
2023-01-13T14:38:01.993Z,7.82
2023-01-13T14:43:10.636Z,7.78
2023-01-13T14:48:13.903Z,7.81
2023-01-13T14:53:43.267Z,7.90
2023-01-13T14:58:45.025Z,7.83
2023-01-13T15:03:50.958Z,7.85
2023-01-13T15:08:52.992Z,7.85
2023-01-13T15:14:01.478Z,7.87
2023-01-13T15:19:03.899Z,7.82
2023-01-13T15:24:06.049Z,7.81
2023-01-13T15:29:15.171Z,7.83
2023-01-13T15:34:16.795Z,7.83
2023-01-13T15:39:18.462Z,7.86
2023-01-13T15:44:38.801Z,7.82
2023-01-13T15:49:42.211Z,7.88
2023-01-13T15:54:43.924Z,7.82
2023-01-13T15:59:45.737Z,7.85
2023-01-13T16:04:47.391Z,7.86
2023-01-13T16:09:49.156Z,7.90
2023-01-13T16:14:50.860Z,7.85
2023-01-13T16:19:52.571Z,7.80
2023-01-13T16:24:54.305Z,7.72
2023-01-13T16:29:56.015Z,7.67
2023-01-13T16:34:59.671Z,7.73
2023-01-13T16:40:02.642Z,7.69
2023-01-13T16:45:08.616Z,7.70
2023-01-13T16:50:24.327Z,7.68
2023-01-13T16:55:27.010Z,7.69
2023-01-13T17:00:28.995Z,7.58
2023-01-13T17:05:30.699Z,7.57
2023-01-13T17:10:32.362Z,7.66
2023-01-13T17:15:35.396Z,7.63
2023-01-13T17:20:37.663Z,7.71
2023-01-13T17:25:39.288Z,7.65
2023-01-13T17:30:43.818Z,7.66
2023-01-13T17:35:46.067Z,7.69
2023-01-13T17:40:50.111Z,7.71
2023-01-13T17:45:52.523Z,7.71
2023-01-13T17:50:54.509Z,7.68
2023-01-13T17:55:56.207Z,7.70
2023-01-13T18:00:57.939Z,7.68
2023-01-13T18:06:15.357Z,7.73
2023-01-13T18:11:19.481Z,7.72
2023-01-13T18:16:22.626Z,7.64
2023-01-13T18:21:45.240Z,7.73
2023-01-13T18:27:05.565Z,7.75
2023-01-13T18:32:08.945Z,7.82
2023-01-13T18:37:12.883Z,7.84
2023-01-13T18:42:33.281Z,7.82
2023-01-13T18:47:34.999Z,7.86
2023-01-13T18:52:36.692Z,7.87
2023-01-13T18:57:41.204Z,7.84
2023-01-13T19:02:43.580Z,7.89
2023-01-13T19:07:50.532Z,7.91
2023-01-13T19:12:52.218Z,7.98
2023-01-13T19:17:53.842Z,7.90
2023-01-13T19:22:55.600Z,7.86
2023-01-13T19:27:57.300Z,7.80
2023-01-13T19:32:59.047Z,7.79
2023-01-13T19:38:00.612Z,7.79
2023-01-13T19:43:21.030Z,7.75
2023-01-13T19:48:25.368Z,7.65
2023-01-13T19:53:27.856Z,7.56
2023-01-13T19:58:29.978Z,7.57
2023-01-13T20:03:35.944Z,7.62
2023-01-13T20:08:37.903Z,7.70
2023-01-13T20:13:39.589Z,7.74
2023-01-13T20:18:41.314Z,7.74
2023-01-13T20:23:44.286Z,7.84
2023-01-13T20:28:46.905Z,7.78
2023-01-13T20:33:50.646Z,7.80
2023-01-13T20:38:56.359Z,7.85
2023-01-13T20:43:57.974Z,7.87
2023-01-13T20:48:59.599Z,7.81
2023-01-13T20:54:01.362Z,7.79
2023-01-13T20:59:03.649Z,7.78
2023-01-13T21:04:06.794Z,7.79
2023-01-13T21:09:08.972Z,7.71
2023-01-13T21:14:37.008Z,7.67
2023-01-13T21:19:38.658Z,7.71
2023-01-13T21:24:40.468Z,7.72
2023-01-13T21:29:44.504Z,7.76
2023-01-13T21:34:46.602Z,7.77
2023-01-13T21:39:49.218Z,7.70
2023-01-13T21:45:09.186Z,7.70
2023-01-13T21:50:12.828Z,7.70
2023-01-13T21:55:26.323Z,7.72
2023-01-13T22:00:30.914Z,7.76
2023-01-13T22:05:33.155Z,7.71
2023-01-13T22:10:35.348Z,7.62
2023-01-13T22:15:36.951Z,7.64
2023-01-13T22:20:38.668Z,7.57
2023-01-13T22:25:40.333Z,7.61
2023-01-13T22:30:42.476Z,7.60
2023-01-13T22:35:44.045Z,7.54
2023-01-13T22:40:45.613Z,7.61
2023-01-13T22:45:56.808Z,7.59
2023-01-13T22:51:04.984Z,7.56
2023-01-13T22:56:07.283Z,7.55
2023-01-13T23:01:18.136Z,7.60
2023-01-13T23:06:23.980Z,7.53
2023-01-13T23:11:27.696Z,7.58
2023-01-13T23:16:31.193Z,7.57
2023-01-13T23:21:36.196Z,7.58
2023-01-13T23:26:38.040Z,7.60
2023-01-13T23:31:40.582Z,7.54
2023-01-13T23:36:43.436Z,7.46
2023-01-13T23:41:45.114Z,7.43
2023-01-13T23:46:46.994Z,7.40
2023-01-13T23:51:51.987Z,7.32
2023-01-13T23:56:53.725Z,7.18
